| time (UTC) | temp C | wind direction | speed KPH | gust KPH | rain 1hr cm | rain 24hr cm | rain mn cm | humidity % | barometer mb |
| 20260507230530 | 24 | 227 | 11.3 | 14.5 | 0.00 | 0.00 | 0.00 | 25 | 1012.1 |
| 20260507230026 | 25 | 211 | 4.8 | 6.4 | 0.00 | 0.00 | 0.00 | 25 | 1012.1 |
| 20260507225521 | 25 | 237 | 11.3 | 12.9 | 0.00 | 0.00 | 0.00 | 30 | 1012.1 |
| 20260507225018 | 25 | 220 | 4.8 | 6.4 | 0.00 | 0.00 | 0.00 | 28 | 1012.2 |
| 20260507224514 | 24 | 216 | 3.2 | 3.2 | 0.00 | 0.00 | 0.00 | 26 | 1012.1 |
| 20260507224010 | 25 | 172 | 4.8 | 9.7 | 0.00 | 0.00 | 0.00 | 28 | 1012.4 |
| 20260507223507 | 24 | 229 | 6.4 | 6.4 | 0.00 | 0.00 | 0.00 | 28 | 1012.4 |
| 20260507223004 | 25 | 211 | 11.3 | 12.9 | 0.00 | 0.00 | 0.00 | 26 | 1012.4 |
| 20260507222501 | 24 | 235 | 1.6 | 3.2 | 0.00 | 0.00 | 0.00 | 25 | 1012.4 |
| 20260507221957 | 25 | 203 | 8.0 | 11.3 | 0.00 | 0.00 | 0.00 | 27 | 1012.6 |
| 20260507221454 | 25 | 226 | 4.8 | 4.8 | 0.00 | 0.00 | 0.00 | 30 | 1012.5 |
| 20260507220950 | 24 | 286 | 14.5 | 17.7 | 0.00 | 0.00 | 0.00 | 26 | 1012.6 |
| 20260507220448 | 24 | 207 | 12.9 | 17.7 | 0.00 | 0.00 | 0.00 | 27 | 1012.6 |
| 20260507215944 | 23 | 225 | 8.0 | 11.3 | 0.00 | 0.00 | 0.00 | 25 | 1012.7 |
| 20260507215441 | 23 | 226 | 14.5 | 20.9 | 0.00 | 0.00 | 0.00 | 28 | 1012.8 |
| 20260507214938 | 24 | 218 | 11.3 | 17.7 | 0.00 | 0.00 | 0.00 | 29 | 1012.6 |
| 20260507214436 | 24 | 208 | 6.4 | 6.4 | 0.00 | 0.00 | 0.00 | 28 | 1012.9 |
| 20260507213931 | 24 | 235 | 8.0 | 14.5 | 0.00 | 0.00 | 0.00 | 28 | 1012.9 |
| 20260507213428 | 25 | 216 | 4.8 | 9.7 | 0.00 | 0.00 | 0.00 | 25 | 1012.9 |
| 20260507212925 | 24 | 211 | 6.4 | 11.3 | 0.00 | 0.00 | 0.00 | 29 | 1013.0 |
| 20260507212421 | 24 | 189 | 11.3 | 16.1 | 0.00 | 0.00 | 0.00 | 27 | 1013.1 |
| 20260507211918 | 24 | 236 | 4.8 | 6.4 | 0.00 | 0.00 | 0.00 | 30 | 1013.1 |
| 20260507211414 | 24 | 218 | 9.7 | 12.9 | 0.00 | 0.00 | 0.00 | 28 | 1013.1 |
| 20260507210911 | 25 | 229 | 3.2 | 4.8 | 0.00 | 0.00 | 0.00 | 27 | 1013.2 |
| 20260507210408 | 24 | 203 | 8.0 | 12.9 | 0.00 | 0.00 | 0.00 | 29 | 1013.4 |
| 20260507205904 | 23 | 242 | 3.2 | 6.4 | 0.00 | 0.00 | 0.00 | 29 | 1013.6 |
| 20260507205402 | 23 | 261 | 11.3 | 12.9 | 0.00 | 0.00 | 0.00 | 30 | 1013.6 |
| 20260507204858 | 24 | 246 | 6.4 | 9.7 | 0.00 | 0.00 | 0.00 | 30 | 1013.8 |
| 20260507204355 | 25 | 223 | 6.4 | 11.3 | 0.00 | 0.00 | 0.00 | 26 | 1013.9 |
| 20260507203852 | 24 | 316 | 8.0 | 11.3 | 0.00 | 0.00 | 0.00 | 29 | 1014.1 |
| 20260507203350 | 23 | 229 | 11.3 | 12.9 | 0.00 | 0.00 | 0.00 | 32 | 1014.1 |
| 20260507202846 | 23 | 216 | 8.0 | 12.9 | 0.00 | 0.00 | 0.00 | 34 | 1014.3 |
| 20260507202343 | 23 | 214 | 6.4 | 11.3 | 0.00 | 0.00 | 0.00 | 30 | 1014.5 |
| 20260507201838 | 22 | 210 | 4.8 | 4.8 | 0.00 | 0.00 | 0.00 | 28 | 1014.5 |
| 20260507201334 | 22 | 216 | 11.3 | 16.1 | 0.00 | 0.00 | 0.00 | 29 | 1014.7 |
| 20260507200831 | 22 | 242 | 8.0 | 11.3 | 0.00 | 0.00 | 0.00 | 33 | 1014.8 |
| 20260507200327 | 22 | 222 | 14.5 | 20.9 | 0.00 | 0.00 | 0.00 | 29 | 1014.6 |
| 20260507195823 | 22 | 221 | 4.8 | 4.8 | 0.00 | 0.00 | 0.00 | 31 | 1014.9 |
| 20260507195320 | 22 | 207 | 14.5 | 24.1 | 0.00 | 0.00 | 0.00 | 32 | 1015.0 |
| 20260507194818 | 22 | 257 | 6.4 | 9.7 | 0.00 | 0.00 | 0.00 | 32 | 1015.0 |
| 20260507194314 | 22 | 207 | 6.4 | 9.7 | 0.00 | 0.00 | 0.00 | 32 | 1015.1 |
| 20260507193810 | 22 | 210 | 9.7 | 12.9 | 0.00 | 0.00 | 0.00 | 33 | 1015.3 |
| 20260507193308 | 22 | 209 | 14.5 | 20.9 | 0.00 | 0.00 | 0.00 | 32 | 1015.2 |
| 20260507192803 | 22 | 236 | 6.4 | 11.3 | 0.00 | 0.00 | 0.00 | 30 | 1015.5 |
| 20260507192300 | 22 | 235 | 8.0 | 11.3 | 0.00 | 0.00 | 0.00 | 35 | 1015.5 |
| 20260507191756 | 21 | 234 | 4.8 | 9.7 | 0.00 | 0.00 | 0.00 | 34 | 1015.4 |
| 20260507191253 | 21 | 215 | 9.7 | 11.3 | 0.00 | 0.00 | 0.00 | 34 | 1015.7 |
| 20260507190750 | 21 | 203 | 8.0 | 9.7 | 0.00 | 0.00 | 0.00 | 36 | 1015.5 |
| 20260507190248 | 21 | 220 | 3.2 | 4.8 | 0.00 | 0.00 | 0.00 | 36 | 1015.5 |
| 20260507185747 | 21 | 127 | 8.0 | 11.3 | 0.00 | 0.00 | 0.00 | 39 | 1015.5 |
| 20260507185243 | 21 | 248 | 9.7 | 16.1 | 0.00 | 0.00 | 0.00 | 38 | 1015.7 |
| 20260507184741 | 21 | 219 | 16.1 | 22.5 | 0.00 | 0.00 | 0.00 | 35 | 1015.7 |
| 20260507184239 | 21 | 208 | 14.5 | 14.5 | 0.00 | 0.00 | 0.00 | 36 | 1015.9 |
| 20260507183735 | 21 | 231 | 6.4 | 6.4 | 0.00 | 0.00 | 0.00 | 34 | 1016.1 |
| 20260507183232 | 21 | 223 | 12.9 | 16.1 | 0.00 | 0.00 | 0.00 | 36 | 1016.1 |
| 20260507182729 | 21 | 255 | 4.8 | 11.3 | 0.00 | 0.00 | 0.00 | 40 | 1016.5 |
| 20260507182224 | 21 | 229 | 3.2 | 4.8 | 0.00 | 0.00 | 0.00 | 38 | 1016.2 |
| 20260507181721 | 20 | 229 | 12.9 | 16.1 | 0.00 | 0.00 | 0.00 | 39 | 1016.5 |
| 20260507181218 | 20 | 219 | 4.8 | 6.4 | 0.00 | 0.00 | 0.00 | 41 | 1016.6 |
| 20260507180714 | 20 | 220 | 8.0 | 11.3 | 0.00 | 0.00 | 0.00 | 38 | 1016.8 |
| 20260507180211 | 20 | 231 | 14.5 | 20.9 | 0.00 | 0.00 | 0.00 | 38 | 1016.7 |
| 20260507175707 | 19 | 236 | 6.4 | 11.3 | 0.00 | 0.00 | 0.00 | 40 | 1016.8 |
| 20260507175204 | 19 | 208 | 14.5 | 16.1 | 0.00 | 0.00 | 0.00 | 40 | 1016.9 |
| 20260507174701 | 18 | 222 | 9.7 | 12.9 | 0.00 | 0.00 | 0.00 | 44 | 1017.0 |
| 20260507174159 | 19 | 234 | 9.7 | 11.3 | 0.00 | 0.00 | 0.00 | 41 | 1017.1 |
| 20260507173656 | 19 | 229 | 6.4 | 11.3 | 0.00 | 0.00 | 0.00 | 44 | 1017.2 |
| 20260507173153 | 20 | 252 | 6.4 | 11.3 | 0.00 | 0.00 | 0.00 | 42 | 1017.4 |
| 20260507172650 | 20 | 226 | 4.8 | 6.4 | 0.00 | 0.00 | 0.00 | 42 | 1017.6 |
| 20260507172147 | 19 | 234 | 9.7 | 16.1 | 0.00 | 0.00 | 0.00 | 42 | 1017.4 |
| 20260507171647 | 18 | 280 | 9.7 | 11.3 | 0.00 | 0.00 | 0.00 | 47 | 1017.6 |
| 20260507171144 | 18 | 231 | 14.5 | 16.1 | 0.00 | 0.00 | 0.00 | 45 | 1017.6 |
| 20260507170641 | 18 | 212 | 19.3 | 27.4 | 0.00 | 0.00 | 0.00 | 43 | 1017.7 |
| 20260507170138 | 18 | 222 | 11.3 | 14.5 | 0.00 | 0.00 | 0.00 | 46 | 1018.0 |
| 20260507165634 | 18 | 262 | 14.5 | 17.7 | 0.00 | 0.00 | 0.00 | 44 | 1018.2 |
| 20260507165130 | 17 | 251 | 8.0 | 11.3 | 0.00 | 0.00 | 0.00 | 50 | 1018.1 |
| 20260507164626 | 18 | 227 | 12.9 | 14.5 | 0.00 | 0.00 | 0.00 | 45 | 1018.2 |
| 20260507164123 | 17 | 231 | 14.5 | 17.7 | 0.00 | 0.00 | 0.00 | 45 | 1018.0 |
| 20260507163620 | 17 | 219 | 14.5 | 20.9 | 0.00 | 0.00 | 0.00 | 50 | 1018.0 |
| 20260507163119 | 17 | 214 | 6.4 | 6.4 | 0.00 | 0.00 | 0.00 | 47 | 1018.1 |
| 20260507162614 | 16 | 249 | 11.3 | 14.5 | 0.00 | 0.00 | 0.00 | 50 | 1018.4 |
| 20260507162111 | 16 | 296 | 9.7 | 14.5 | 0.00 | 0.00 | 0.00 | 50 | 1018.3 |
| 20260507161607 | 16 | 271 | 12.9 | 14.5 | 0.00 | 0.00 | 0.00 | 51 | 1018.2 |
| 20260507161103 | 16 | 236 | 19.3 | 29.0 | 0.00 | 0.00 | 0.00 | 47 | 1018.5 |
| 20260507160600 | 16 | 236 | 16.1 | 22.5 | 0.00 | 0.00 | 0.00 | 48 | 1018.6 |
| 20260507160056 | 16 | 82 | 14.5 | 22.5 | 0.00 | 0.00 | 0.00 | 49 | 1018.4 |
| 20260507155551 | 15 | 206 | 3.2 | 6.4 | 0.00 | 0.00 | 0.00 | 55 | 1018.4 |
| 20260507155049 | 15 | 218 | 17.7 | 25.7 | 0.00 | 0.00 | 0.00 | 55 | 1018.7 |
| 20260507154546 | 15 | 232 | 9.7 | 12.9 | 0.00 | 0.00 | 0.00 | 53 | 1018.6 |
| 20260507154043 | 15 | 229 | 11.3 | 14.5 | 0.00 | 0.00 | 0.00 | 55 | 1018.9 |
| 20260507153539 | 15 | 234 | 9.7 | 14.5 | 0.00 | 0.00 | 0.00 | 57 | 1018.6 |
| 20260507153036 | 15 | 216 | 11.3 | 16.1 | 0.00 | 0.00 | 0.00 | 54 | 1018.7 |
| 20260507152532 | 14 | 205 | 11.3 | 12.9 | 0.00 | 0.00 | 0.00 | 57 | 1018.8 |
| 20260507152028 | 15 | 228 | 16.1 | 17.7 | 0.00 | 0.00 | 0.00 | 55 | 1019.1 |
| 20260507151524 | 15 | 199 | 8.0 | 9.7 | 0.00 | 0.00 | 0.00 | 59 | 1019.1 |
| 20260507151021 | 14 | 219 | 6.4 | 11.3 | 0.00 | 0.00 | 0.00 | 60 | 1019.1 |
| 20260507150518 | 15 | 255 | 6.4 | 9.7 | 0.00 | 0.00 | 0.00 | 60 | 1019.3 |
| 20260507150015 | 14 | 231 | 4.8 | 6.4 | 0.00 | 0.00 | 0.00 | 60 | 1019.1 |
| 20260507145510 | 13 | 247 | 6.4 | 9.7 | 0.00 | 0.00 | 0.00 | 62 | 1019.5 |
| 20260507145008 | 13 | 219 | 4.8 | 9.7 | 0.00 | 0.00 | 0.00 | 59 | 1019.3 |
| 20260507144504 | 13 | 252 | 17.7 | 17.7 | 0.00 | 0.00 | 0.00 | 58 | 1019.3 |
| 20260507144002 | 13 | 215 | 9.7 | 17.7 | 0.00 | 0.00 | 0.00 | 64 | 1019.5 |
| 20260507143459 | 13 | 178 | 6.4 | 11.3 | 0.00 | 0.00 | 0.00 | 62 | 1019.6 |
| 20260507142955 | 13 | 225 | 9.7 | 14.5 | 0.00 | 0.00 | 0.00 | 64 | 1019.5 |
| 20260507142451 | 13 | 42 | 3.2 | 4.8 | 0.00 | 0.00 | 0.00 | 67 | 1019.5 |
| 20260507141948 | 12 | 213 | 3.2 | 4.8 | 0.00 | 0.00 | 0.00 | 69 | 1019.5 |
| 20260507141444 | 12 | 212 | 4.8 | 4.8 | 0.00 | 0.00 | 0.00 | 69 | 1019.5 |
| 20260507140941 | 12 | 238 | 4.8 | 6.4 | 0.00 | 0.00 | 0.00 | 70 | 1019.5 |
| 20260507140438 | 12 | 220 | 4.8 | 4.8 | 0.00 | 0.00 | 0.00 | 71 | 1019.6 |
| 20260507135936 | 12 | 226 | 8.0 | 12.9 | 0.00 | 0.00 | 0.00 | 72 | 1019.7 |
| 20260507135432 | 11 | 223 | 3.2 | 3.2 | 0.00 | 0.00 | 0.00 | 75 | 1019.8 |
| 20260507134930 | 11 | 206 | 9.7 | 12.9 | 0.00 | 0.00 | 0.00 | 74 | 1019.6 |
| 20260507134426 | 11 | 231 | 4.8 | 6.4 | 0.00 | 0.00 | 0.00 | 77 | 1019.7 |
| 20260507133922 | 10 | 218 | 4.8 | 4.8 | 0.00 | 0.00 | 0.00 | 77 | 1019.7 |
| 20260507133419 | 10 | 194 | 3.2 | 3.2 | 0.00 | 0.00 | 0.00 | 78 | 1019.8 |
| 20260507132917 | 10 | 218 | 6.4 | 9.7 | 0.00 | 0.00 | 0.00 | 79 | 1019.8 |
| 20260507132413 | 10 | 229 | 4.8 | 4.8 | 0.00 | 0.00 | 0.00 | 80 | 1019.8 |
| 20260507131909 | 10 | 218 | 3.2 | 3.2 | 0.00 | 0.00 | 0.00 | 81 | 1019.8 |
| 20260507131407 | 9 | 208 | 4.8 | 4.8 | 0.00 | 0.00 | 0.00 | 81 | 1020.0 |
| 20260507130904 | 9 | 219 | 6.4 | 9.7 | 0.00 | 0.00 | 0.00 | 82 | 1019.9 |
| 20260507130400 | 8 | 218 | 3.2 | 3.2 | 0.00 | 0.00 | 0.00 | 85 | 1020.0 |
| 20260507125859 | 8 | 194 | 1.6 | 1.6 | 0.00 | 0.00 | 0.00 | 86 | 1020.0 |
| 20260507125356 | 8 | 215 | 4.8 | 4.8 | 0.00 | 0.00 | 0.00 | 86 | 1019.9 |
| 20260507124854 | 7 | 216 | 1.6 | 1.6 | 0.00 | 0.00 | 0.00 | 89 | 1019.7 |
| 20260507124349 | 7 | 195 | 0.0 | 1.6 | 0.00 | 0.00 | 0.00 | 91 | 1019.7 |
| 20260507123849 | 7 | 207 | 0.0 | 0.0 | 0.00 | 0.00 | 0.00 | 93 | 1019.7 |
| 20260507123345 | 6 | 207 | 0.0 | 0.0 | 0.00 | 0.00 | 0.00 | 94 | 1019.8 |
| 20260507122841 | 6 | 207 | 0.0 | 0.0 | 0.00 | 0.00 | 0.00 | 94 | 1020.0 |
| 20260507122337 | 6 | 207 | 0.0 | 0.0 | 0.00 | 0.00 | 0.00 | 94 | 1020.0 |
| 20260507121834 | 6 | 207 | 0.0 | 0.0 | 0.00 | 0.00 | 0.00 | 94 | 1020.0 |
| 20260507121329 | 5 | 207 | 0.0 | 0.0 | 0.00 | 0.00 | 0.00 | 94 | 1019.8 |
| 20260507120826 | 5 | 207 | 0.0 | 0.0 | 0.00 | 0.00 | 0.00 | 93 | 1019.7 |
| 20260507120322 | 5 | 207 | 0.0 | 0.0 | 0.00 | 0.00 | 0.00 | 93 | 1019.8 |
| 20260507115819 | 5 | 207 | 0.0 | 0.0 | 0.00 | 0.00 | 0.00 | 92 | 1019.5 |
| 20260507115314 | 5 | 207 | 0.0 | 0.0 | 0.00 | 0.00 | 0.00 | 92 | 1019.6 |
| 20260507114810 | 6 | 207 | 0.0 | 0.0 | 0.00 | 0.00 | 0.00 | 92 | 1019.5 |
| 20260507114308 | 6 | 207 | 0.0 | 0.0 | 0.00 | 0.00 | 0.00 | 92 | 1019.5 |
| 20260507113805 | 6 | 207 | 0.0 | 0.0 | 0.00 | 0.00 | 0.00 | 92 | 1019.4 |
| 20260507113302 | 6 | 207 | 0.0 | 0.0 | 0.00 | 0.00 | 0.00 | 92 | 1019.4 |
| 20260507112800 | 6 | 207 | 0.0 | 0.0 | 0.00 | 0.00 | 0.00 | 92 | 1019.6 |
| 20260507112256 | 6 | 207 | 0.0 | 0.0 | 0.00 | 0.00 | 0.00 | 92 | 1019.4 |
| 20260507111754 | 6 | 207 | 0.0 | 0.0 | 0.00 | 0.00 | 0.00 | 92 | 1019.3 |
| 20260507111250 | 6 | 207 | 0.0 | 0.0 | 0.00 | 0.00 | 0.00 | 92 | 1019.3 |
| 20260507110746 | 6 | 207 | 0.0 | 0.0 | 0.00 | 0.00 | 0.00 | 91 | 1019.6 |
| 20260507110243 | 6 | 207 | 0.0 | 0.0 | 0.00 | 0.00 | 0.00 | 92 | 1019.4 |
| 20260507105740 | 6 | 207 | 0.0 | 0.0 | 0.00 | 0.00 | 0.00 | 92 | 1019.3 |
| 20260507105236 | 6 | 207 | 0.0 | 0.0 | 0.00 | 0.00 | 0.00 | 92 | 1019.4 |
| 20260507104733 | 6 | 207 | 0.0 | 0.0 | 0.00 | 0.00 | 0.00 | 92 | 1019.5 |
| 20260507104230 | 6 | 207 | 0.0 | 0.0 | 0.00 | 0.00 | 0.00 | 92 | 1019.4 |
| 20260507103726 | 6 | 207 | 0.0 | 0.0 | 0.00 | 0.00 | 0.00 | 92 | 1019.5 |
| 20260507103222 | 6 | 207 | 0.0 | 0.0 | 0.00 | 0.00 | 0.00 | 92 | 1019.6 |
| 20260507102719 | 6 | 207 | 0.0 | 0.0 | 0.00 | 0.00 | 0.00 | 92 | 1019.6 |
| 20260507102215 | 6 | 207 | 0.0 | 0.0 | 0.00 | 0.00 | 0.00 | 92 | 1019.4 |
| 20260507101711 | 6 | 207 | 0.0 | 0.0 | 0.00 | 0.00 | 0.00 | 92 | 1019.4 |
| 20260507101207 | 6 | 207 | 0.0 | 0.0 | 0.00 | 0.00 | 0.00 | 92 | 1019.7 |
| 20260507100704 | 6 | 207 | 0.0 | 0.0 | 0.00 | 0.00 | 0.00 | 91 | 1019.5 |
| 20260507100203 | 6 | 207 | 0.0 | 0.0 | 0.00 | 0.00 | 0.00 | 91 | 1019.7 |
| 20260507095701 | 6 | 207 | 0.0 | 0.0 | 0.00 | 0.00 | 0.00 | 91 | 1019.9 |
| 20260507095157 | 6 | 207 | 0.0 | 0.0 | 0.00 | 0.00 | 0.00 | 90 | 1019.6 |
| 20260507094653 | 7 | 207 | 0.0 | 0.0 | 0.00 | 0.00 | 0.00 | 89 | 1019.7 |
| 20260507094150 | 7 | 207 | 0.0 | 0.0 | 0.00 | 0.00 | 0.00 | 89 | 1019.8 |
| 20260507093647 | 7 | 207 | 0.0 | 0.0 | 0.00 | 0.00 | 0.00 | 88 | 1019.7 |
| 20260507093146 | 7 | 207 | 0.0 | 0.0 | 0.00 | 0.00 | 0.00 | 88 | 1019.9 |
| 20260507092643 | 7 | 207 | 0.0 | 0.0 | 0.00 | 0.00 | 0.00 | 87 | 1019.8 |
| 20260507092139 | 7 | 207 | 0.0 | 0.0 | 0.00 | 0.00 | 0.00 | 86 | 1019.7 |
| 20260507091635 | 7 | 207 | 0.0 | 0.0 | 0.00 | 0.00 | 0.00 | 85 | 1019.8 |
| 20260507091132 | 8 | 207 | 0.0 | 0.0 | 0.00 | 0.00 | 0.00 | 84 | 1019.7 |
| 20260507090627 | 8 | 207 | 0.0 | 0.0 | 0.00 | 0.00 | 0.00 | 83 | 1019.9 |
| 20260507090125 | 8 | 207 | 0.0 | 0.0 | 0.00 | 0.00 | 0.00 | 82 | 1019.7 |
| 20260507085622 | 8 | 207 | 0.0 | 0.0 | 0.00 | 0.00 | 0.00 | 82 | 1019.8 |
| 20260507085118 | 8 | 207 | 0.0 | 0.0 | 0.00 | 0.00 | 0.00 | 83 | 1019.6 |
| 20260507084615 | 9 | 207 | 0.0 | 0.0 | 0.00 | 0.00 | 0.00 | 84 | 1019.9 |
| 20260507084112 | 9 | 207 | 0.0 | 0.0 | 0.00 | 0.00 | 0.00 | 84 | 1019.9 |
| 20260507083609 | 9 | 207 | 0.0 | 0.0 | 0.00 | 0.00 | 0.00 | 83 | 1020.0 |
| 20260507083106 | 9 | 207 | 0.0 | 0.0 | 0.00 | 0.00 | 0.00 | 81 | 1020.1 |
| 20260507082601 | 9 | 207 | 0.0 | 0.0 | 0.00 | 0.00 | 0.00 | 81 | 1020.0 |
| 20260507082058 | 9 | 207 | 0.0 | 0.0 | 0.00 | 0.00 | 0.00 | 81 | 1020.1 |
| 20260507081554 | 9 | 207 | 0.0 | 0.0 | 0.00 | 0.00 | 0.00 | 80 | 1020.1 |
| 20260507081052 | 9 | 207 | 0.0 | 0.0 | 0.00 | 0.00 | 0.00 | 80 | 1020.2 |
| 20260507080547 | 9 | 207 | 0.0 | 0.0 | 0.00 | 0.00 | 0.00 | 81 | 1020.0 |
| 20260507080044 | 9 | 207 | 0.0 | 0.0 | 0.00 | 0.00 | 0.00 | 80 | 1019.8 |
| 20260507075539 | 10 | 207 | 0.0 | 0.0 | 0.00 | 0.00 | 0.00 | 80 | 1020.1 |
| 20260507075036 | 10 | 207 | 0.0 | 0.0 | 0.00 | 0.00 | 0.00 | 80 | 1020.2 |
| 20260507074533 | 10 | 207 | 0.0 | 0.0 | 0.00 | 0.00 | 0.00 | 81 | 1020.0 |
| 20260507074031 | 10 | 207 | 0.0 | 0.0 | 0.00 | 0.00 | 0.00 | 81 | 1020.1 |
| 20260507073527 | 10 | 207 | 0.0 | 0.0 | 0.00 | 0.00 | 0.00 | 80 | 1020.1 |
| 20260507073024 | 10 | 207 | 0.0 | 0.0 | 0.00 | 0.00 | 0.00 | 79 | 1020.1 |
| 20260507072521 | 10 | 207 | 0.0 | 0.0 | 0.00 | 0.00 | 0.00 | 80 | 1020.1 |
| 20260507072018 | 10 | 207 | 0.0 | 0.0 | 0.00 | 0.00 | 0.00 | 79 | 1020.2 |
| 20260507071516 | 10 | 207 | 0.0 | 0.0 | 0.00 | 0.00 | 0.00 | 79 | 1020.4 |
| 20260507071012 | 10 | 207 | 0.0 | 0.0 | 0.00 | 0.00 | 0.00 | 79 | 1020.4 |
| 20260507070509 | 10 | 207 | 0.0 | 0.0 | 0.00 | 0.00 | 0.00 | 80 | 1020.4 |
| 20260507070010 | 10 | 207 | 0.0 | 0.0 | 0.00 | 0.00 | 0.00 | 79 | 1020.4 |
| 20260507065502 | 10 | 207 | 0.0 | 0.0 | 0.00 | 0.00 | 0.00 | 78 | 1020.5 |
| 20260507064959 | 10 | 207 | 0.0 | 0.0 | 0.00 | 0.00 | 0.00 | 77 | 1020.5 |
| 20260507064458 | 10 | 207 | 0.0 | 0.0 | 0.00 | 0.00 | 0.00 | 77 | 1020.4 |
| 20260507063955 | 10 | 207 | 0.0 | 0.0 | 0.00 | 0.00 | 0.00 | 77 | 1020.3 |
| 20260507063452 | 10 | 207 | 0.0 | 0.0 | 0.00 | 0.00 | 0.00 | 77 | 1020.3 |
| 20260507062949 | 10 | 207 | 0.0 | 1.6 | 0.00 | 0.00 | 0.00 | 77 | 1020.4 |
| 20260507062446 | 10 | 194 | 0.0 | 0.0 | 0.00 | 0.00 | 0.00 | 80 | 1020.5 |
| 20260507061944 | 10 | 194 | 0.0 | 0.0 | 0.00 | 0.00 | 0.00 | 78 | 1020.4 |
| 20260507061442 | 10 | 194 | 0.0 | 0.0 | 0.00 | 0.00 | 0.00 | 78 | 1020.3 |
| 20260507060940 | 9 | 210 | 0.0 | 0.0 | 0.00 | 0.00 | 0.00 | 81 | 1020.4 |
| 20260507060436 | 9 | 210 | 0.0 | 0.0 | 0.00 | 0.00 | 0.00 | 84 | 1020.5 |
| 20260507055933 | 9 | 210 | 0.0 | 0.0 | 0.00 | 0.00 | 0.00 | 85 | 1020.6 |
| 20260507055428 | 9 | 210 | 0.0 | 0.0 | 0.00 | 0.00 | 0.00 | 84 | 1020.5 |
| 20260507054925 | 9 | 209 | 0.0 | 0.0 | 0.00 | 0.00 | 0.00 | 85 | 1020.5 |
| 20260507054421 | 9 | 209 | 0.0 | 0.0 | 0.00 | 0.00 | 0.00 | 86 | 1020.6 |
| 20260507053919 | 9 | 209 | 0.0 | 0.0 | 0.00 | 0.00 | 0.00 | 87 | 1020.4 |
| 20260507053416 | 9 | 209 | 0.0 | 0.0 | 0.00 | 0.00 | 0.00 | 88 | 1020.6 |
| 20260507052915 | 9 | 210 | 0.0 | 0.0 | 0.00 | 0.00 | 0.00 | 88 | 1020.5 |
| 20260507052412 | 8 | 209 | 0.0 | 0.0 | 0.00 | 0.00 | 0.00 | 88 | 1020.3 |
| 20260507051909 | 8 | 209 | 0.0 | 0.0 | 0.00 | 0.00 | 0.00 | 87 | 1020.3 |
| 20260507051407 | 8 | 209 | 0.0 | 0.0 | 0.00 | 0.00 | 0.00 | 87 | 1020.6 |
| 20260507050903 | 8 | 209 | 0.0 | 0.0 | 0.00 | 0.00 | 0.00 | 87 | 1020.5 |
| 20260507050359 | 8 | 209 | 0.0 | 0.0 | 0.00 | 0.00 | 0.00 | 87 | 1020.6 |
| 20260507045856 | 8 | 209 | 0.0 | 0.0 | 0.00 | 0.18 | 0.18 | 86 | 1020.6 |
| 20260507045353 | 8 | 210 | 0.0 | 0.0 | 0.00 | 0.18 | 0.18 | 85 | 1020.7 |
| 20260507044850 | 8 | 209 | 0.0 | 0.0 | 0.00 | 0.18 | 0.18 | 85 | 1020.6 |
| 20260507044347 | 9 | 209 | 0.0 | 0.0 | 0.00 | 0.18 | 0.18 | 83 | 1020.4 |
| 20260507043842 | 9 | 209 | 0.0 | 0.0 | 0.00 | 0.18 | 0.18 | 83 | 1020.6 |
| 20260507043339 | 10 | 209 | 0.0 | 0.0 | 0.00 | 0.18 | 0.18 | 82 | 1020.6 |
| 20260507042836 | 10 | 210 | 0.0 | 0.0 | 0.00 | 0.18 | 0.18 | 81 | 1020.5 |
| 20260507042331 | 10 | 209 | 0.0 | 0.0 | 0.00 | 0.18 | 0.18 | 81 | 1020.7 |
| 20260507041829 | 10 | 210 | 0.0 | 0.0 | 0.00 | 0.18 | 0.18 | 79 | 1020.4 |
| 20260507041325 | 10 | 210 | 0.0 | 0.0 | 0.00 | 0.18 | 0.18 | 80 | 1020.3 |
| 20260507040822 | 10 | 210 | 0.0 | 0.0 | 0.00 | 0.18 | 0.18 | 80 | 1020.4 |
| 20260507040318 | 10 | 210 | 0.0 | 0.0 | 0.00 | 0.18 | 0.18 | 79 | 1020.7 |
| 20260507035814 | 11 | 210 | 0.0 | 0.0 | 0.00 | 0.18 | 0.18 | 77 | 1020.5 |
| 20260507035310 | 11 | 210 | 0.0 | 0.0 | 0.00 | 0.18 | 0.18 | 77 | 1020.7 |
| 20260507034808 | 11 | 210 | 1.6 | 1.6 | 0.00 | 0.18 | 0.18 | 73 | 1020.6 |
| 20260507034305 | 11 | 209 | 0.0 | 0.0 | 0.00 | 0.18 | 0.18 | 73 | 1020.5 |
| 20260507033803 | 11 | 209 | 0.0 | 0.0 | 0.00 | 0.18 | 0.18 | 73 | 1020.5 |
| 20260507033300 | 11 | 209 | 0.0 | 0.0 | 0.00 | 0.18 | 0.18 | 73 | 1020.5 |
| 20260507032757 | 11 | 209 | 0.0 | 0.0 | 0.00 | 0.18 | 0.18 | 73 | 1020.4 |
| 20260507032253 | 11 | 210 | 0.0 | 0.0 | 0.00 | 0.18 | 0.18 | 74 | 1020.4 |
| 20260507031749 | 11 | 210 | 0.0 | 0.0 | 0.00 | 0.18 | 0.18 | 71 | 1020.7 |
| 20260507031247 | 11 | 210 | 0.0 | 0.0 | 0.00 | 0.18 | 0.18 | 70 | 1020.5 |
| 20260507030743 | 11 | 210 | 0.0 | 0.0 | 0.00 | 0.18 | 0.18 | 73 | 1020.3 |
| 20260507030241 | 11 | 210 | 0.0 | 0.0 | 0.00 | 0.18 | 0.18 | 71 | 1020.2 |
| 20260507025738 | 11 | 210 | 0.0 | 0.0 | 0.00 | 0.18 | 0.18 | 68 | 1020.4 |
| 20260507025235 | 11 | 210 | 0.0 | 0.0 | 0.00 | 0.18 | 0.18 | 69 | 1020.6 |
| 20260507024733 | 11 | 210 | 0.0 | 0.0 | 0.00 | 0.18 | 0.18 | 69 | 1020.3 |
| 20260507024230 | 11 | 210 | 0.0 | 0.0 | 0.00 | 0.18 | 0.18 | 68 | 1020.4 |
| 20260507023725 | 12 | 210 | 0.0 | 0.0 | 0.00 | 0.18 | 0.18 | 69 | 1020.0 |
| 20260507023222 | 11 | 219 | 0.0 | 0.0 | 0.00 | 0.18 | 0.18 | 60 | 1020.3 |
| 20260507022720 | 11 | 219 | 0.0 | 0.0 | 0.00 | 0.18 | 0.18 | 65 | 1020.4 |
| 20260507022216 | 11 | 219 | 0.0 | 0.0 | 0.00 | 0.18 | 0.18 | 65 | 1020.3 |
| 20260507021712 | 11 | 230 | 0.0 | 1.6 | 0.00 | 0.18 | 0.18 | 67 | 1020.0 |
| 20260507021207 | 11 | 201 | 1.6 | 1.6 | 0.00 | 0.18 | 0.18 | 66 | 1020.2 |
| 20260507020706 | 11 | 183 | 0.0 | 0.0 | 0.00 | 0.18 | 0.18 | 62 | 1020.0 |
| 20260507020202 | 12 | 183 | 0.0 | 0.0 | 0.00 | 0.18 | 0.18 | 60 | 1019.7 |
| 20260507015700 | 12 | 183 | 0.0 | 0.0 | 0.00 | 0.18 | 0.18 | 60 | 1019.6 |
| 20260507015157 | 12 | 183 | 0.0 | 0.0 | 0.00 | 0.18 | 0.18 | 58 | 1019.7 |
| 20260507014653 | 12 | 183 | 0.0 | 0.0 | 0.00 | 0.18 | 0.18 | 56 | 1019.6 |
| 20260507014150 | 12 | 183 | 0.0 | 0.0 | 0.00 | 0.18 | 0.18 | 55 | 1019.5 |
| 20260507013647 | 12 | 183 | 0.0 | 0.0 | 0.00 | 0.18 | 0.18 | 55 | 1019.4 |
| 20260507013144 | 13 | 183 | 0.0 | 0.0 | 0.00 | 0.18 | 0.18 | 54 | 1019.4 |
| 20260507012642 | 13 | 183 | 0.0 | 0.0 | 0.00 | 0.18 | 0.18 | 52 | 1019.3 |
| 20260507012136 | 13 | 183 | 0.0 | 0.0 | 0.00 | 0.18 | 0.18 | 53 | 1019.1 |
| 20260507011635 | 13 | 183 | 0.0 | 0.0 | 0.00 | 0.18 | 0.18 | 51 | 1019.3 |
| 20260507011131 | 13 | 182 | 0.0 | 0.0 | 0.00 | 0.18 | 0.18 | 50 | 1019.4 |
| 20260507010626 | 13 | 186 | 0.0 | 0.0 | 0.00 | 0.18 | 0.18 | 50 | 1019.1 |
| 20260507010122 | 13 | 181 | 0.0 | 0.0 | 0.00 | 0.18 | 0.18 | 49 | 1019.0 |
| 20260507005620 | 13 | 190 | 0.0 | 0.0 | 0.00 | 0.18 | 0.18 | 49 | 1019.1 |
| 20260507005116 | 13 | 190 | 0.0 | 0.0 | 0.00 | 0.18 | 0.18 | 47 | 1019.1 |
| 20260507004613 | 13 | 186 | 0.0 | 0.0 | 0.00 | 0.18 | 0.18 | 47 | 1019.1 |
| 20260507004110 | 14 | 175 | 0.0 | 0.0 | 0.00 | 0.18 | 0.18 | 46 | 1019.0 |
| 20260507003606 | 14 | 192 | 0.0 | 0.0 | 0.00 | 0.18 | 0.18 | 46 | 1019.1 |
| 20260507003101 | 14 | 169 | 0.0 | 1.6 | 0.00 | 0.18 | 0.18 | 45 | 1019.0 |
| 20260507002558 | 15 | 154 | 1.6 | 1.6 | 0.00 | 0.18 | 0.18 | 44 | 1019.1 |
| 20260507002053 | 15 | 187 | 0.0 | 0.0 | 0.00 | 0.18 | 0.18 | 43 | 1019.1 |
| 20260507001550 | 15 | 166 | 0.0 | 0.0 | 0.00 | 0.18 | 0.18 | 44 | 1019.1 |
| 20260507001048 | 15 | 46 | 3.2 | 3.2 | 0.00 | 0.18 | 0.18 | 43 | 1019.1 |
| 20260507000544 | 15 | 68 | 0.0 | 1.6 | 0.00 | 0.18 | 0.18 | 43 | 1019.1 |
| 20260507000039 | 15 | 149 | 0.0 | 1.6 | 0.00 | 0.18 | 0.18 | 44 | 1018.9 |
| 20260506235537 | 15 | 177 | 0.0 | 0.0 | 0.00 | 0.18 | 0.18 | 45 | 1019.0 |
| 20260506235032 | 15 | 315 | 3.2 | 3.2 | 0.00 | 0.18 | 0.18 | 43 | 1018.7 |
| 20260506234530 | 16 | 213 | 1.6 | 1.6 | 0.00 | 0.18 | 0.18 | 46 | 1018.7 |
| 20260506234027 | 16 | 174 | 1.6 | 3.2 | 0.00 | 0.18 | 0.18 | 43 | 1018.7 |
| 20260506233524 | 16 | 81 | 3.2 | 3.2 | 0.00 | 0.18 | 0.18 | 43 | 1018.8 |
| 20260506233021 | 16 | 192 | 0.0 | 0.0 | 0.00 | 0.18 | 0.18 | 46 | 1018.8 |
| 20260506232517 | 16 | 214 | 0.0 | 0.0 | 0.00 | 0.18 | 0.18 | 44 | 1018.9 |
| 20260506232013 | 16 | 57 | 1.6 | 3.2 | 0.00 | 0.18 | 0.18 | 42 | 1018.8 |
| 20260506231510 | 16 | 39 | 3.2 | 3.2 | 0.00 | 0.18 | 0.18 | 43 | 1018.9 |
| 20260506231008 | 16 | 229 | 4.8 | 4.8 | 0.00 | 0.18 | 0.18 | 42 | 1018.8 |